sensor_id;sensor_type;location;lat;lon;timestamp;P1;durP1;ratioP1;P2;durP2;ratioP2
769;SDS011;368;48.698;9.116;2022-12-20T00:00:50;10.43;;;9.33;;
769;SDS011;368;48.698;9.116;2022-12-20T00:03:18;10.23;;;8.60;;
769;SDS011;368;48.698;9.116;2022-12-20T00:05:45;14.10;;;9.73;;
769;SDS011;368;48.698;9.116;2022-12-20T00:08:13;12.30;;;9.40;;
769;SDS011;368;48.698;9.116;2022-12-20T00:10:40;9.60;;;8.70;;
769;SDS011;368;48.698;9.116;2022-12-20T00:13:08;10.93;;;8.73;;
769;SDS011;368;48.698;9.116;2022-12-20T00:15:36;11.00;;;8.77;;
769;SDS011;368;48.698;9.116;2022-12-20T00:18:03;10.13;;;8.40;;
769;SDS011;368;48.698;9.116;2022-12-20T00:20:31;12.70;;;8.37;;
769;SDS011;368;48.698;9.116;2022-12-20T00:22:58;9.87;;;7.87;;
769;SDS011;368;48.698;9.116;2022-12-20T00:25:25;11.30;;;8.50;;
769;SDS011;368;48.698;9.116;2022-12-20T00:27:51;11.07;;;9.97;;
769;SDS011;368;48.698;9.116;2022-12-20T00:30:18;12.27;;;10.30;;
769;SDS011;368;48.698;9.116;2022-12-20T00:32:45;9.83;;;8.83;;
769;SDS011;368;48.698;9.116;2022-12-20T00:35:12;10.07;;;8.13;;
769;SDS011;368;48.698;9.116;2022-12-20T00:37:40;9.70;;;8.37;;
769;SDS011;368;48.698;9.116;2022-12-20T00:40:07;9.40;;;8.10;;
769;SDS011;368;48.698;9.116;2022-12-20T00:42:34;10.00;;;8.43;;
769;SDS011;368;48.698;9.116;2022-12-20T00:45:01;10.27;;;9.27;;
769;SDS011;368;48.698;9.116;2022-12-20T00:47:28;9.67;;;7.90;;
769;SDS011;368;48.698;9.116;2022-12-20T00:49:55;10.17;;;8.00;;
769;SDS011;368;48.698;9.116;2022-12-20T00:52:22;9.30;;;7.60;;
769;SDS011;368;48.698;9.116;2022-12-20T00:54:50;10.37;;;9.30;;
769;SDS011;368;48.698;9.116;2022-12-20T00:57:17;9.40;;;7.93;;
769;SDS011;368;48.698;9.116;2022-12-20T00:59:44;10.43;;;8.10;;
769;SDS011;368;48.698;9.116;2022-12-20T01:02:10;9.53;;;8.50;;
769;SDS011;368;48.698;9.116;2022-12-20T01:04:38;8.50;;;7.37;;
769;SDS011;368;48.698;9.116;2022-12-20T01:07:05;9.90;;;8.13;;
769;SDS011;368;48.698;9.116;2022-12-20T01:09:32;9.10;;;7.20;;
769;SDS011;368;48.698;9.116;2022-12-20T01:12:00;9.77;;;7.27;;
769;SDS011;368;48.698;9.116;2022-12-20T01:14:27;9.50;;;8.13;;
769;SDS011;368;48.698;9.116;2022-12-20T01:16:54;8.63;;;6.80;;
769;SDS011;368;48.698;9.116;2022-12-20T01:19:21;7.87;;;7.07;;
769;SDS011;368;48.698;9.116;2022-12-20T01:21:48;10.47;;;8.03;;
769;SDS011;368;48.698;9.116;2022-12-20T01:24:16;8.50;;;7.70;;
769;SDS011;368;48.698;9.116;2022-12-20T01:26:44;11.57;;;8.83;;
769;SDS011;368;48.698;9.116;2022-12-20T01:29:13;9.10;;;8.17;;
769;SDS011;368;48.698;9.116;2022-12-20T01:31:40;9.43;;;7.53;;
769;SDS011;368;48.698;9.116;2022-12-20T01:34:06;9.07;;;8.17;;
769;SDS011;368;48.698;9.116;2022-12-20T01:36:34;8.03;;;7.20;;
769;SDS011;368;48.698;9.116;2022-12-20T01:39:02;9.53;;;7.30;;
769;SDS011;368;48.698;9.116;2022-12-20T01:41:31;7.43;;;6.73;;
769;SDS011;368;48.698;9.116;2022-12-20T01:43:59;8.90;;;7.97;;
769;SDS011;368;48.698;9.116;2022-12-20T01:46:29;9.30;;;8.30;;
769;SDS011;368;48.698;9.116;2022-12-20T01:48:58;15.40;;;9.63;;
769;SDS011;368;48.698;9.116;2022-12-20T01:51:26;9.07;;;8.10;;
769;SDS011;368;48.698;9.116;2022-12-20T01:53:56;7.97;;;7.17;;
769;SDS011;368;48.698;9.116;2022-12-20T01:56:27;11.20;;;10.07;;
769;SDS011;368;48.698;9.116;2022-12-20T01:58:53;20.10;;;18.00;;
769;SDS011;368;48.698;9.116;2022-12-20T02:01:22;11.87;;;9.73;;
769;SDS011;368;48.698;9.116;2022-12-20T02:03:51;9.40;;;7.70;;
769;SDS011;368;48.698;9.116;2022-12-20T02:06:20;14.93;;;8.40;;
769;SDS011;368;48.698;9.116;2022-12-20T02:08:48;8.47;;;7.40;;
769;SDS011;368;48.698;9.116;2022-12-20T02:11:25;11.47;;;10.30;;
769;SDS011;368;48.698;9.116;2022-12-20T02:14:03;8.27;;;7.40;;
769;SDS011;368;48.698;9.116;2022-12-20T02:16:40;10.00;;;8.30;;
769;SDS011;368;48.698;9.116;2022-12-20T02:19:19;10.10;;;8.90;;
769;SDS011;368;48.698;9.116;2022-12-20T02:22:00;9.93;;;8.33;;
769;SDS011;368;48.698;9.116;2022-12-20T02:24:46;9.87;;;7.37;;
769;SDS011;368;48.698;9.116;2022-12-20T02:27:34;10.10;;;7.73;;
769;SDS011;368;48.698;9.116;2022-12-20T02:30:13;8.40;;;7.30;;
769;SDS011;368;48.698;9.116;2022-12-20T02:32:43;8.10;;;7.30;;
769;SDS011;368;48.698;9.116;2022-12-20T02:35:18;17.07;;;8.80;;
769;SDS011;368;48.698;9.116;2022-12-20T02:37:48;9.47;;;7.47;;
769;SDS011;368;48.698;9.116;2022-12-20T02:40:16;7.83;;;6.90;;
769;SDS011;368;48.698;9.116;2022-12-20T02:42:47;8.07;;;7.27;;
769;SDS011;368;48.698;9.116;2022-12-20T02:45:19;8.30;;;7.50;;
769;SDS011;368;48.698;9.116;2022-12-20T02:47:48;7.93;;;7.20;;
769;SDS011;368;48.698;9.116;2022-12-20T02:50:21;7.67;;;6.97;;
769;SDS011;368;48.698;9.116;2022-12-20T02:52:50;8.23;;;7.23;;
769;SDS011;368;48.698;9.116;2022-12-20T02:55:18;8.27;;;7.20;;
769;SDS011;368;48.698;9.116;2022-12-20T02:57:48;8.50;;;7.60;;
769;SDS011;368;48.698;9.116;2022-12-20T03:00:22;9.43;;;7.40;;
769;SDS011;368;48.698;9.116;2022-12-20T03:02:49;7.90;;;7.10;;
769;SDS011;368;48.698;9.116;2022-12-20T03:05:35;8.00;;;7.13;;
769;SDS011;368;48.698;9.116;2022-12-20T03:08:08;8.47;;;7.63;;
769;SDS011;368;48.698;9.116;2022-12-20T03:10:35;12.40;;;8.10;;
769;SDS011;368;48.698;9.116;2022-12-20T03:13:02;9.37;;;8.43;;
769;SDS011;368;48.698;9.116;2022-12-20T03:15:31;9.00;;;7.93;;
769;SDS011;368;48.698;9.116;2022-12-20T03:17:57;8.50;;;7.50;;
769;SDS011;368;48.698;9.116;2022-12-20T03:20:24;10.80;;;7.67;;
769;SDS011;368;48.698;9.116;2022-12-20T03:22:51;9.47;;;7.80;;
769;SDS011;368;48.698;9.116;2022-12-20T03:25:18;9.37;;;8.37;;
769;SDS011;368;48.698;9.116;2022-12-20T03:27:45;8.77;;;7.87;;
769;SDS011;368;48.698;9.116;2022-12-20T03:30:12;8.70;;;7.90;;
769;SDS011;368;48.698;9.116;2022-12-20T03:32:41;8.53;;;7.40;;
769;SDS011;368;48.698;9.116;2022-12-20T03:35:08;9.60;;;7.33;;
769;SDS011;368;48.698;9.116;2022-12-20T03:37:35;10.23;;;7.90;;
769;SDS011;368;48.698;9.116;2022-12-20T03:40:02;10.90;;;7.93;;
769;SDS011;368;48.698;9.116;2022-12-20T03:42:30;9.37;;;7.63;;
769;SDS011;368;48.698;9.116;2022-12-20T03:44:57;10.17;;;7.53;;
769;SDS011;368;48.698;9.116;2022-12-20T03:47:24;9.47;;;7.47;;
769;SDS011;368;48.698;9.116;2022-12-20T03:49:52;8.73;;;7.50;;
769;SDS011;368;48.698;9.116;2022-12-20T03:52:18;9.30;;;7.50;;
769;SDS011;368;48.698;9.116;2022-12-20T03:54:45;10.30;;;7.73;;
769;SDS011;368;48.698;9.116;2022-12-20T03:57:12;8.50;;;7.60;;
769;SDS011;368;48.698;9.116;2022-12-20T03:59:39;9.83;;;7.87;;
769;SDS011;368;48.698;9.116;2022-12-20T04:02:06;8.53;;;7.63;;
769;SDS011;368;48.698;9.116;2022-12-20T04:04:32;9.00;;;8.10;;
769;SDS011;368;48.698;9.116;2022-12-20T04:07:01;8.60;;;6.77;;
769;SDS011;368;48.698;9.116;2022-12-20T04:09:27;9.67;;;7.87;;
769;SDS011;368;48.698;9.116;2022-12-20T04:11:54;8.50;;;7.40;;
769;SDS011;368;48.698;9.116;2022-12-20T04:14:21;8.40;;;7.30;;
769;SDS011;368;48.698;9.116;2022-12-20T04:16:48;7.87;;;7.07;;
769;SDS011;368;48.698;9.116;2022-12-20T04:19:15;17.13;;;12.73;;
769;SDS011;368;48.698;9.116;2022-12-20T04:21:41;21.70;;;12.57;;
769;SDS011;368;48.698;9.116;2022-12-20T04:24:10;13.57;;;9.00;;
769;SDS011;368;48.698;9.116;2022-12-20T04:26:37;11.03;;;8.13;;
769;SDS011;368;48.698;9.116;2022-12-20T04:29:03;10.20;;;8.13;;
769;SDS011;368;48.698;9.116;2022-12-20T04:31:31;8.60;;;7.80;;
769;SDS011;368;48.698;9.116;2022-12-20T04:33:57;18.47;;;13.30;;
769;SDS011;368;48.698;9.116;2022-12-20T04:36:24;12.30;;;10.03;;
769;SDS011;368;48.698;9.116;2022-12-20T04:38:51;12.00;;;8.93;;
769;SDS011;368;48.698;9.116;2022-12-20T04:41:20;9.07;;;8.03;;
769;SDS011;368;48.698;9.116;2022-12-20T04:43:48;23.73;;;16.57;;
769;SDS011;368;48.698;9.116;2022-12-20T04:46:15;34.67;;;20.70;;
769;SDS011;368;48.698;9.116;2022-12-20T04:48:42;15.77;;;13.37;;
769;SDS011;368;48.698;9.116;2022-12-20T04:51:09;20.93;;;14.60;;
769;SDS011;368;48.698;9.116;2022-12-20T04:53:36;20.40;;;13.00;;
769;SDS011;368;48.698;9.116;2022-12-20T04:56:12;20.33;;;14.40;;
769;SDS011;368;48.698;9.116;2022-12-20T04:58:40;18.23;;;12.70;;
769;SDS011;368;48.698;9.116;2022-12-20T05:01:07;14.63;;;11.57;;
769;SDS011;368;48.698;9.116;2022-12-20T05:03:34;10.33;;;8.60;;
769;SDS011;368;48.698;9.116;2022-12-20T05:06:01;10.67;;;8.90;;
769;SDS011;368;48.698;9.116;2022-12-20T05:08:28;10.10;;;9.00;;
769;SDS011;368;48.698;9.116;2022-12-20T05:10:55;8.33;;;6.83;;
769;SDS011;368;48.698;9.116;2022-12-20T05:13:22;27.80;;;24.23;;
769;SDS011;368;48.698;9.116;2022-12-20T05:15:51;12.13;;;10.70;;
769;SDS011;368;48.698;9.116;2022-12-20T05:18:18;12.97;;;9.20;;
769;SDS011;368;48.698;9.116;2022-12-20T05:20:46;12.33;;;11.13;;
769;SDS011;368;48.698;9.116;2022-12-20T05:23:33;9.30;;;8.07;;
769;SDS011;368;48.698;9.116;2022-12-20T05:26:17;10.57;;;8.13;;
769;SDS011;368;48.698;9.116;2022-12-20T05:28:44;10.37;;;8.00;;
769;SDS011;368;48.698;9.116;2022-12-20T05:31:12;18.33;;;12.10;;
769;SDS011;368;48.698;9.116;2022-12-20T05:33:39;18.80;;;12.50;;
769;SDS011;368;48.698;9.116;2022-12-20T05:36:06;8.50;;;7.10;;
769;SDS011;368;48.698;9.116;2022-12-20T05:38:33;8.60;;;7.40;;
769;SDS011;368;48.698;9.116;2022-12-20T05:41:00;9.73;;;7.73;;
769;SDS011;368;48.698;9.116;2022-12-20T05:43:28;10.03;;;8.50;;
769;SDS011;368;48.698;9.116;2022-12-20T05:45:55;8.80;;;7.90;;
769;SDS011;368;48.698;9.116;2022-12-20T05:48:23;7.77;;;6.50;;
769;SDS011;368;48.698;9.116;2022-12-20T05:50:50;8.77;;;6.80;;
769;SDS011;368;48.698;9.116;2022-12-20T05:53:17;9.10;;;7.40;;
769;SDS011;368;48.698;9.116;2022-12-20T05:55:44;8.53;;;7.70;;
769;SDS011;368;48.698;9.116;2022-12-20T05:58:13;8.83;;;7.93;;
769;SDS011;368;48.698;9.116;2022-12-20T06:00:41;8.80;;;7.70;;
769;SDS011;368;48.698;9.116;2022-12-20T06:03:08;24.37;;;20.97;;
769;SDS011;368;48.698;9.116;2022-12-20T06:05:39;24.30;;;19.83;;
769;SDS011;368;48.698;9.116;2022-12-20T06:08:07;14.03;;;12.63;;
769;SDS011;368;48.698;9.116;2022-12-20T06:10:34;11.17;;;10.07;;
769;SDS011;368;48.698;9.116;2022-12-20T06:13:01;10.50;;;9.50;;
769;SDS011;368;48.698;9.116;2022-12-20T06:15:28;11.93;;;10.67;;
769;SDS011;368;48.698;9.116;2022-12-20T06:17:56;13.30;;;12.10;;
769;SDS011;368;48.698;9.116;2022-12-20T06:20:23;11.70;;;10.50;;
769;SDS011;368;48.698;9.116;2022-12-20T06:22:51;10.53;;;9.50;;
769;SDS011;368;48.698;9.116;2022-12-20T06:25:18;8.80;;;8.00;;
769;SDS011;368;48.698;9.116;2022-12-20T06:27:45;9.93;;;7.60;;
769;SDS011;368;48.698;9.116;2022-12-20T06:30:12;8.30;;;7.50;;
769;SDS011;368;48.698;9.116;2022-12-20T06:32:39;7.63;;;6.43;;
769;SDS011;368;48.698;9.116;2022-12-20T06:35:06;7.30;;;6.57;;
769;SDS011;368;48.698;9.116;2022-12-20T06:37:34;10.87;;;9.77;;
769;SDS011;368;48.698;9.116;2022-12-20T06:40:03;30.23;;;20.57;;
769;SDS011;368;48.698;9.116;2022-12-20T06:42:31;68.87;;;61.37;;
769;SDS011;368;48.698;9.116;2022-12-20T06:44:58;127.17;;;107.53;;
769;SDS011;368;48.698;9.116;2022-12-20T06:47:24;52.67;;;34.77;;
769;SDS011;368;48.698;9.116;2022-12-20T06:49:51;74.13;;;38.63;;
769;SDS011;368;48.698;9.116;2022-12-20T06:52:18;32.40;;;24.90;;
769;SDS011;368;48.698;9.116;2022-12-20T06:54:45;13.40;;;12.10;;
769;SDS011;368;48.698;9.116;2022-12-20T06:57:13;9.97;;;9.07;;
769;SDS011;368;48.698;9.116;2022-12-20T06:59:40;10.00;;;9.07;;
769;SDS011;368;48.698;9.116;2022-12-20T07:02:08;7.33;;;6.63;;
769;SDS011;368;48.698;9.116;2022-12-20T07:04:35;7.70;;;6.77;;
769;SDS011;368;48.698;9.116;2022-12-20T07:07:02;8.90;;;7.00;;
769;SDS011;368;48.698;9.116;2022-12-20T07:09:30;7.00;;;6.40;;
769;SDS011;368;48.698;9.116;2022-12-20T07:11:56;6.50;;;5.90;;
769;SDS011;368;48.698;9.116;2022-12-20T07:14:27;6.70;;;5.80;;
769;SDS011;368;48.698;9.116;2022-12-20T07:16:54;5.87;;;5.37;;
769;SDS011;368;48.698;9.116;2022-12-20T07:19:21;7.20;;;5.83;;
769;SDS011;368;48.698;9.116;2022-12-20T07:21:48;6.70;;;5.53;;
769;SDS011;368;48.698;9.116;2022-12-20T07:24:15;6.67;;;5.63;;
769;SDS011;368;48.698;9.116;2022-12-20T07:26:42;6.30;;;5.03;;
769;SDS011;368;48.698;9.116;2022-12-20T07:29:09;5.70;;;5.10;;
769;SDS011;368;48.698;9.116;2022-12-20T07:31:38;6.43;;;5.83;;
769;SDS011;368;48.698;9.116;2022-12-20T07:34:05;7.53;;;5.77;;
769;SDS011;368;48.698;9.116;2022-12-20T07:36:32;5.50;;;5.00;;
769;SDS011;368;48.698;9.116;2022-12-20T07:38:59;9.07;;;5.40;;
769;SDS011;368;48.698;9.116;2022-12-20T07:41:26;6.60;;;5.90;;
769;SDS011;368;48.698;9.116;2022-12-20T07:43:53;7.30;;;5.20;;
769;SDS011;368;48.698;9.116;2022-12-20T07:46:22;6.70;;;5.20;;
769;SDS011;368;48.698;9.116;2022-12-20T07:48:50;5.67;;;5.17;;
769;SDS011;368;48.698;9.116;2022-12-20T07:51:17;7.20;;;5.13;;
769;SDS011;368;48.698;9.116;2022-12-20T07:53:47;8.40;;;6.87;;
769;SDS011;368;48.698;9.116;2022-12-20T07:56:18;5.70;;;5.07;;
769;SDS011;368;48.698;9.116;2022-12-20T07:58:46;6.00;;;5.23;;
769;SDS011;368;48.698;9.116;2022-12-20T08:01:15;5.70;;;4.60;;
769;SDS011;368;48.698;9.116;2022-12-20T08:03:44;6.03;;;5.43;;
769;SDS011;368;48.698;9.116;2022-12-20T08:06:15;5.70;;;5.20;;
769;SDS011;368;48.698;9.116;2022-12-20T08:08:45;8.40;;;5.33;;
769;SDS011;368;48.698;9.116;2022-12-20T08:11:16;6.60;;;5.70;;
769;SDS011;368;48.698;9.116;2022-12-20T08:13:45;4.80;;;4.30;;
769;SDS011;368;48.698;9.116;2022-12-20T08:16:12;5.17;;;4.67;;
769;SDS011;368;48.698;9.116;2022-12-20T08:18:38;5.33;;;4.73;;
769;SDS011;368;48.698;9.116;2022-12-20T08:21:05;5.53;;;5.03;;
769;SDS011;368;48.698;9.116;2022-12-20T08:23:34;6.30;;;5.70;;
769;SDS011;368;48.698;9.116;2022-12-20T08:26:00;7.10;;;5.20;;
769;SDS011;368;48.698;9.116;2022-12-20T08:28:28;5.43;;;4.67;;
769;SDS011;368;48.698;9.116;2022-12-20T08:30:59;6.17;;;5.13;;
769;SDS011;368;48.698;9.116;2022-12-20T08:33:26;6.57;;;5.07;;
769;SDS011;368;48.698;9.116;2022-12-20T08:35:56;8.90;;;5.47;;
769;SDS011;368;48.698;9.116;2022-12-20T08:38:24;7.43;;;5.37;;
769;SDS011;368;48.698;9.116;2022-12-20T08:40:53;6.57;;;5.83;;
769;SDS011;368;48.698;9.116;2022-12-20T08:43:20;9.43;;;7.10;;
769;SDS011;368;48.698;9.116;2022-12-20T08:45:50;7.50;;;6.50;;
769;SDS011;368;48.698;9.116;2022-12-20T08:48:18;7.20;;;6.50;;
769;SDS011;368;48.698;9.116;2022-12-20T08:50:45;4.43;;;4.03;;
769;SDS011;368;48.698;9.116;2022-12-20T08:53:11;6.40;;;5.20;;
769;SDS011;368;48.698;9.116;2022-12-20T08:55:38;5.60;;;4.70;;
769;SDS011;368;48.698;9.116;2022-12-20T08:58:06;5.07;;;4.60;;
769;SDS011;368;48.698;9.116;2022-12-20T09:00:33;5.07;;;4.67;;
769;SDS011;368;48.698;9.116;2022-12-20T09:03:01;6.10;;;5.53;;
769;SDS011;368;48.698;9.116;2022-12-20T09:05:28;5.50;;;5.00;;
769;SDS011;368;48.698;9.116;2022-12-20T09:07:55;7.87;;;5.77;;
769;SDS011;368;48.698;9.116;2022-12-20T09:10:21;4.63;;;4.23;;
769;SDS011;368;48.698;9.116;2022-12-20T09:12:48;4.80;;;4.40;;
769;SDS011;368;48.698;9.116;2022-12-20T09:15:17;6.47;;;5.60;;
769;SDS011;368;48.698;9.116;2022-12-20T09:17:43;8.20;;;6.17;;
769;SDS011;368;48.698;9.116;2022-12-20T09:20:11;8.43;;;5.40;;
769;SDS011;368;48.698;9.116;2022-12-20T09:22:39;4.20;;;3.80;;
769;SDS011;368;48.698;9.116;2022-12-20T09:25:06;21.17;;;15.70;;
769;SDS011;368;48.698;9.116;2022-12-20T09:27:34;7.43;;;6.67;;
769;SDS011;368;48.698;9.116;2022-12-20T09:30:00;8.00;;;7.30;;
769;SDS011;368;48.698;9.116;2022-12-20T09:32:29;6.30;;;5.23;;
769;SDS011;368;48.698;9.116;2022-12-20T09:34:55;11.67;;;10.47;;
769;SDS011;368;48.698;9.116;2022-12-20T09:37:22;8.00;;;7.20;;
769;SDS011;368;48.698;9.116;2022-12-20T09:39:49;11.30;;;7.73;;
769;SDS011;368;48.698;9.116;2022-12-20T09:42:16;58.03;;;40.23;;
769;SDS011;368;48.698;9.116;2022-12-20T09:44:46;24.60;;;14.37;;
769;SDS011;368;48.698;9.116;2022-12-20T09:47:14;50.93;;;25.13;;
769;SDS011;368;48.698;9.116;2022-12-20T09:49:44;30.23;;;17.00;;
769;SDS011;368;48.698;9.116;2022-12-20T09:52:18;10.93;;;7.13;;
769;SDS011;368;48.698;9.116;2022-12-20T09:54:55;21.03;;;9.70;;
769;SDS011;368;48.698;9.116;2022-12-20T09:57:31;19.00;;;9.43;;
769;SDS011;368;48.698;9.116;2022-12-20T10:00:08;16.20;;;8.07;;
769;SDS011;368;48.698;9.116;2022-12-20T10:02:38;22.80;;;10.40;;
769;SDS011;368;48.698;9.116;2022-12-20T10:05:07;37.33;;;16.03;;
769;SDS011;368;48.698;9.116;2022-12-20T10:07:40;21.90;;;11.80;;
769;SDS011;368;48.698;9.116;2022-12-20T10:10:30;22.73;;;13.93;;
769;SDS011;368;48.698;9.116;2022-12-20T10:13:09;19.80;;;10.40;;
769;SDS011;368;48.698;9.116;2022-12-20T10:15:48;30.03;;;13.30;;
769;SDS011;368;48.698;9.116;2022-12-20T10:18:23;99.13;;;41.87;;
769;SDS011;368;48.698;9.116;2022-12-20T10:21:04;63.50;;;29.37;;
769;SDS011;368;48.698;9.116;2022-12-20T10:23:39;18.00;;;11.10;;
769;SDS011;368;48.698;9.116;2022-12-20T10:26:11;12.80;;;9.80;;
769;SDS011;368;48.698;9.116;2022-12-20T10:28:39;12.13;;;8.10;;
769;SDS011;368;48.698;9.116;2022-12-20T10:31:06;11.43;;;9.00;;
769;SDS011;368;48.698;9.116;2022-12-20T10:33:37;9.57;;;7.13;;
769;SDS011;368;48.698;9.116;2022-12-20T10:36:20;6.30;;;5.20;;
769;SDS011;368;48.698;9.116;2022-12-20T10:38:51;5.80;;;5.20;;
769;SDS011;368;48.698;9.116;2022-12-20T10:41:19;7.63;;;6.93;;
769;SDS011;368;48.698;9.116;2022-12-20T10:43:49;8.67;;;7.67;;
769;SDS011;368;48.698;9.116;2022-12-20T10:46:21;8.30;;;6.10;;
769;SDS011;368;48.698;9.116;2022-12-20T10:48:48;7.27;;;6.57;;
769;SDS011;368;48.698;9.116;2022-12-20T10:51:16;10.80;;;8.83;;
769;SDS011;368;48.698;9.116;2022-12-20T10:53:50;7.80;;;7.10;;
769;SDS011;368;48.698;9.116;2022-12-20T10:56:20;5.67;;;5.10;;
769;SDS011;368;48.698;9.116;2022-12-20T10:58:56;9.20;;;8.20;;
769;SDS011;368;48.698;9.116;2022-12-20T11:01:25;8.83;;;5.80;;
769;SDS011;368;48.698;9.116;2022-12-20T11:03:56;6.30;;;5.70;;
769;SDS011;368;48.698;9.116;2022-12-20T11:06:25;4.93;;;4.53;;
769;SDS011;368;48.698;9.116;2022-12-20T11:12:02;4.23;;;3.80;;
769;SDS011;368;48.698;9.116;2022-12-20T11:14:31;4.90;;;3.50;;
769;SDS011;368;48.698;9.116;2022-12-20T11:16:59;15.33;;;5.30;;
769;SDS011;368;48.698;9.116;2022-12-20T11:19:37;6.23;;;5.57;;
769;SDS011;368;48.698;9.116;2022-12-20T11:22:20;5.60;;;4.97;;
769;SDS011;368;48.698;9.116;2022-12-20T11:25:00;19.20;;;13.63;;
769;SDS011;368;48.698;9.116;2022-12-20T11:27:37;9.33;;;8.27;;
769;SDS011;368;48.698;9.116;2022-12-20T11:30:14;12.80;;;10.60;;
769;SDS011;368;48.698;9.116;2022-12-20T11:32:49;11.20;;;9.10;;
769;SDS011;368;48.698;9.116;2022-12-20T11:35:28;5.80;;;5.20;;
769;SDS011;368;48.698;9.116;2022-12-20T11:38:06;5.27;;;4.80;;
769;SDS011;368;48.698;9.116;2022-12-20T11:40:45;5.23;;;4.57;;
769;SDS011;368;48.698;9.116;2022-12-20T11:43:21;6.87;;;6.17;;
769;SDS011;368;48.698;9.116;2022-12-20T11:46:12;5.77;;;4.37;;
769;SDS011;368;48.698;9.116;2022-12-20T11:48:52;6.33;;;4.20;;
769;SDS011;368;48.698;9.116;2022-12-20T11:51:31;7.10;;;6.20;;
769;SDS011;368;48.698;9.116;2022-12-20T11:54:08;6.60;;;5.93;;
769;SDS011;368;48.698;9.116;2022-12-20T11:56:41;5.77;;;4.97;;
769;SDS011;368;48.698;9.116;2022-12-20T11:59:14;6.17;;;5.07;;
769;SDS011;368;48.698;9.116;2022-12-20T12:01:49;6.77;;;6.07;;
769;SDS011;368;48.698;9.116;2022-12-20T12:04:19;5.43;;;4.93;;
769;SDS011;368;48.698;9.116;2022-12-20T12:06:50;5.13;;;4.63;;
769;SDS011;368;48.698;9.116;2022-12-20T12:09:22;5.83;;;5.20;;
769;SDS011;368;48.698;9.116;2022-12-20T12:11:55;5.83;;;5.23;;
769;SDS011;368;48.698;9.116;2022-12-20T12:14:32;10.53;;;5.60;;
769;SDS011;368;48.698;9.116;2022-12-20T12:17:08;5.70;;;4.57;;
769;SDS011;368;48.698;9.116;2022-12-20T12:19:42;5.60;;;4.13;;
769;SDS011;368;48.698;9.116;2022-12-20T12:22:15;5.90;;;4.43;;
769;SDS011;368;48.698;9.116;2022-12-20T12:24:49;4.87;;;4.47;;
769;SDS011;368;48.698;9.116;2022-12-20T12:27:21;6.70;;;4.40;;
769;SDS011;368;48.698;9.116;2022-12-20T12:29:49;5.93;;;4.10;;
769;SDS011;368;48.698;9.116;2022-12-20T12:32:18;3.80;;;3.50;;
769;SDS011;368;48.698;9.116;2022-12-20T12:34:56;5.13;;;4.03;;
769;SDS011;368;48.698;9.116;2022-12-20T12:37:53;5.67;;;3.93;;
769;SDS011;368;48.698;9.116;2022-12-20T12:43:42;6.73;;;5.23;;
769;SDS011;368;48.698;9.116;2022-12-20T12:46:12;7.27;;;5.47;;
769;SDS011;368;48.698;9.116;2022-12-20T12:48:42;5.30;;;3.93;;
769;SDS011;368;48.698;9.116;2022-12-20T12:51:14;4.67;;;3.53;;
769;SDS011;368;48.698;9.116;2022-12-20T12:53:48;4.60;;;4.20;;
769;SDS011;368;48.698;9.116;2022-12-20T12:56:29;5.47;;;4.30;;
769;SDS011;368;48.698;9.116;2022-12-20T13:05:32;9.37;;;6.87;;
769;SDS011;368;48.698;9.116;2022-12-20T13:08:00;9.80;;;7.57;;
769;SDS011;368;48.698;9.116;2022-12-20T13:13:22;5.80;;;4.33;;
769;SDS011;368;48.698;9.116;2022-12-20T13:16:05;9.40;;;6.00;;
769;SDS011;368;48.698;9.116;2022-12-20T13:18:56;7.63;;;6.70;;
769;SDS011;368;48.698;9.116;2022-12-20T13:21:40;15.23;;;11.73;;
769;SDS011;368;48.698;9.116;2022-12-20T13:32:54;16.97;;;9.90;;
769;SDS011;368;48.698;9.116;2022-12-20T13:35:46;22.40;;;17.60;;
769;SDS011;368;48.698;9.116;2022-12-20T13:38:36;9.30;;;8.30;;
769;SDS011;368;48.698;9.116;2022-12-20T13:41:31;11.43;;;9.47;;
769;SDS011;368;48.698;9.116;2022-12-20T13:47:02;6.50;;;5.60;;
769;SDS011;368;48.698;9.116;2022-12-20T13:49:37;6.03;;;5.43;;
769;SDS011;368;48.698;9.116;2022-12-20T13:52:12;5.37;;;4.70;;
769;SDS011;368;48.698;9.116;2022-12-20T13:54:46;5.27;;;4.77;;
769;SDS011;368;48.698;9.116;2022-12-20T13:57:16;7.27;;;6.43;;
769;SDS011;368;48.698;9.116;2022-12-20T13:59:50;6.67;;;6.13;;
769;SDS011;368;48.698;9.116;2022-12-20T14:02:21;6.57;;;5.90;;
769;SDS011;368;48.698;9.116;2022-12-20T14:04:53;6.93;;;6.23;;
769;SDS011;368;48.698;9.116;2022-12-20T14:07:25;6.60;;;5.60;;
769;SDS011;368;48.698;9.116;2022-12-20T14:09:54;6.17;;;4.67;;
769;SDS011;368;48.698;9.116;2022-12-20T14:12:23;6.03;;;5.30;;
769;SDS011;368;48.698;9.116;2022-12-20T14:14:50;7.97;;;7.27;;
769;SDS011;368;48.698;9.116;2022-12-20T14:17:21;8.17;;;7.27;;
769;SDS011;368;48.698;9.116;2022-12-20T14:20:11;8.17;;;6.33;;
769;SDS011;368;48.698;9.116;2022-12-20T14:22:42;7.23;;;6.50;;
769;SDS011;368;48.698;9.116;2022-12-20T14:25:18;6.03;;;5.43;;
769;SDS011;368;48.698;9.116;2022-12-20T14:27:52;6.77;;;6.17;;
769;SDS011;368;48.698;9.116;2022-12-20T14:30:30;6.13;;;5.63;;
769;SDS011;368;48.698;9.116;2022-12-20T14:32:58;6.37;;;5.77;;
769;SDS011;368;48.698;9.116;2022-12-20T14:35:26;5.13;;;4.73;;
769;SDS011;368;48.698;9.116;2022-12-20T14:37:56;5.83;;;5.33;;
769;SDS011;368;48.698;9.116;2022-12-20T14:40:25;5.47;;;4.90;;
769;SDS011;368;48.698;9.116;2022-12-20T14:42:52;6.57;;;5.97;;
769;SDS011;368;48.698;9.116;2022-12-20T14:45:21;7.33;;;6.63;;
769;SDS011;368;48.698;9.116;2022-12-20T14:47:53;7.97;;;7.27;;
769;SDS011;368;48.698;9.116;2022-12-20T14:50:25;9.00;;;8.10;;
769;SDS011;368;48.698;9.116;2022-12-20T14:52:56;10.77;;;7.80;;
769;SDS011;368;48.698;9.116;2022-12-20T14:55:24;6.97;;;6.37;;
769;SDS011;368;48.698;9.116;2022-12-20T14:57:57;5.77;;;5.27;;
769;SDS011;368;48.698;9.116;2022-12-20T15:00:24;5.60;;;5.10;;
769;SDS011;368;48.698;9.116;2022-12-20T15:02:57;6.80;;;4.57;;
769;SDS011;368;48.698;9.116;2022-12-20T15:05:36;9.00;;;6.03;;
769;SDS011;368;48.698;9.116;2022-12-20T15:08:11;7.13;;;5.90;;
769;SDS011;368;48.698;9.116;2022-12-20T15:10:40;12.37;;;8.97;;
769;SDS011;368;48.698;9.116;2022-12-20T15:13:10;12.33;;;8.57;;
769;SDS011;368;48.698;9.116;2022-12-20T15:15:39;8.90;;;6.60;;
769;SDS011;368;48.698;9.116;2022-12-20T15:18:12;8.53;;;7.27;;
769;SDS011;368;48.698;9.116;2022-12-20T15:20:40;7.80;;;6.87;;
769;SDS011;368;48.698;9.116;2022-12-20T15:23:14;9.93;;;7.60;;
769;SDS011;368;48.698;9.116;2022-12-20T15:25:42;8.33;;;6.90;;
769;SDS011;368;48.698;9.116;2022-12-20T15:28:14;8.63;;;7.47;;
769;SDS011;368;48.698;9.116;2022-12-20T15:30:42;9.60;;;7.40;;
769;SDS011;368;48.698;9.116;2022-12-20T15:33:14;8.90;;;7.57;;
769;SDS011;368;48.698;9.116;2022-12-20T15:35:43;7.63;;;6.93;;
769;SDS011;368;48.698;9.116;2022-12-20T15:38:13;7.90;;;7.10;;
769;SDS011;368;48.698;9.116;2022-12-20T15:40:42;7.90;;;7.20;;
769;SDS011;368;48.698;9.116;2022-12-20T15:43:11;11.10;;;6.90;;
769;SDS011;368;48.698;9.116;2022-12-20T15:45:39;11.00;;;7.33;;
769;SDS011;368;48.698;9.116;2022-12-20T15:48:10;10.03;;;8.10;;
769;SDS011;368;48.698;9.116;2022-12-20T15:50:42;10.20;;;7.27;;
769;SDS011;368;48.698;9.116;2022-12-20T15:53:16;10.63;;;8.47;;
769;SDS011;368;48.698;9.116;2022-12-20T15:55:47;10.27;;;8.37;;
769;SDS011;368;48.698;9.116;2022-12-20T15:58:17;13.07;;;10.37;;
769;SDS011;368;48.698;9.116;2022-12-20T16:00:44;22.10;;;19.63;;
769;SDS011;368;48.698;9.116;2022-12-20T16:03:14;24.30;;;14.07;;
769;SDS011;368;48.698;9.116;2022-12-20T16:05:43;15.97;;;14.23;;
769;SDS011;368;48.698;9.116;2022-12-20T16:08:11;15.73;;;12.87;;
769;SDS011;368;48.698;9.116;2022-12-20T16:10:39;17.83;;;15.37;;
769;SDS011;368;48.698;9.116;2022-12-20T16:13:06;17.43;;;15.63;;
769;SDS011;368;48.698;9.116;2022-12-20T16:15:38;20.20;;;18.27;;
769;SDS011;368;48.698;9.116;2022-12-20T16:18:04;16.33;;;14.77;;
769;SDS011;368;48.698;9.116;2022-12-20T16:20:32;78.63;;;58.10;;
769;SDS011;368;48.698;9.116;2022-12-20T16:22:59;22.27;;;18.70;;